createdAt,value
2023-05-20T00:00:24.632Z,436.00
2023-05-20T00:01:24.700Z,435.00
2023-05-20T00:02:24.802Z,436.00
2023-05-20T00:03:25.095Z,435.00
2023-05-20T00:04:24.857Z,437.00
2023-05-20T00:05:24.892Z,437.00
2023-05-20T00:06:24.914Z,435.00
2023-05-20T00:07:24.939Z,433.00
2023-05-20T00:08:24.985Z,433.00
2023-05-20T00:09:25.064Z,435.00
2023-05-20T00:10:25.081Z,435.00
2023-05-20T00:11:25.126Z,437.00
2023-05-20T00:12:25.186Z,438.00
2023-05-20T00:13:25.206Z,437.00
2023-05-20T00:14:25.257Z,435.00
2023-05-20T00:15:25.318Z,437.00
2023-05-20T00:16:25.382Z,436.00
2023-05-20T00:17:25.369Z,437.00
2023-05-20T00:18:25.429Z,438.00
2023-05-20T00:19:25.560Z,438.00
2023-05-20T00:20:25.487Z,438.00
2023-05-20T00:21:25.522Z,438.00
2023-05-20T00:22:25.605Z,439.00
2023-05-20T00:23:25.633Z,437.00
2023-05-20T00:24:25.689Z,436.00
2023-05-20T00:25:25.727Z,437.00
2023-05-20T00:26:25.768Z,436.00
2023-05-20T00:27:25.828Z,437.00
2023-05-20T00:28:25.858Z,436.00
2023-05-20T00:29:25.895Z,433.00
2023-05-20T00:30:25.967Z,431.00
2023-05-20T00:31:26.073Z,430.00
2023-05-20T00:32:26.135Z,431.00
2023-05-20T00:33:26.067Z,433.00
2023-05-20T00:34:26.129Z,434.00
2023-05-20T00:35:26.168Z,436.00
2023-05-20T00:36:26.208Z,439.00
2023-05-20T00:37:26.263Z,441.00
2023-05-20T00:38:26.299Z,442.00
2023-05-20T00:39:26.351Z,444.00
2023-05-20T00:40:26.405Z,445.00
2023-05-20T00:41:26.432Z,445.00
2023-05-20T00:42:26.458Z,446.00
2023-05-20T00:43:26.536Z,446.00
2023-05-20T00:44:26.548Z,446.00
2023-05-20T00:45:26.628Z,446.00
2023-05-20T00:46:26.762Z,444.00
2023-05-20T00:47:26.724Z,445.00
2023-05-20T00:48:26.718Z,444.00
2023-05-20T00:49:26.784Z,441.00
2023-05-20T00:50:26.824Z,441.00
2023-05-20T00:51:26.874Z,443.00
2023-05-20T00:52:26.911Z,444.00
2023-05-20T00:53:26.985Z,443.00
2023-05-20T00:54:26.983Z,444.00
2023-05-20T00:55:27.045Z,442.00
2023-05-20T00:56:27.102Z,443.00
2023-05-20T00:57:27.142Z,443.00
2023-05-20T00:58:27.159Z,444.00
2023-05-20T00:59:27.218Z,446.00
2023-05-20T01:00:27.280Z,445.00
2023-05-20T01:01:27.352Z,448.00
2023-05-20T01:02:27.485Z,447.00
2023-05-20T01:03:27.651Z,446.00
2023-05-20T01:04:27.453Z,446.00
2023-05-20T01:05:27.501Z,446.00
2023-05-20T01:06:27.533Z,447.00
2023-05-20T01:07:27.588Z,447.00
2023-05-20T01:08:27.624Z,448.00
2023-05-20T01:09:27.676Z,448.00
2023-05-20T01:10:27.725Z,448.00
2023-05-20T01:11:27.756Z,446.00
2023-05-20T01:12:27.810Z,447.00
2023-05-20T01:13:27.840Z,445.00
2023-05-20T01:14:27.885Z,444.00
2023-05-20T01:15:27.933Z,443.00
2023-05-20T01:16:28.000Z,443.00
2023-05-20T01:17:28.053Z,441.00
2023-05-20T01:18:28.070Z,440.00
2023-05-20T01:19:28.252Z,441.00
2023-05-20T01:20:28.169Z,442.00
2023-05-20T01:21:28.194Z,442.00
2023-05-20T01:22:28.266Z,440.00
2023-05-20T01:23:28.265Z,439.00
2023-05-20T01:24:28.345Z,439.00
2023-05-20T01:25:28.369Z,438.00
2023-05-20T01:26:28.439Z,438.00
2023-05-20T01:27:28.483Z,437.00
2023-05-20T01:28:28.525Z,435.00
2023-05-20T01:29:28.605Z,437.00
2023-05-20T01:30:28.623Z,441.00
2023-05-20T01:31:28.721Z,443.00
2023-05-20T01:32:28.746Z,442.00
2023-05-20T01:33:28.759Z,443.00
2023-05-20T01:34:28.788Z,441.00
2023-05-20T01:35:28.845Z,440.00
2023-05-20T01:36:28.904Z,438.00
2023-05-20T01:37:28.950Z,437.00
2023-05-20T01:38:28.951Z,438.00
2023-05-20T01:39:29.031Z,440.00
2023-05-20T01:40:29.124Z,440.00
2023-05-20T01:41:29.107Z,440.00
2023-05-20T01:42:29.171Z,445.00
2023-05-20T01:43:29.195Z,442.00
2023-05-20T01:44:29.269Z,440.00
2023-05-20T01:45:29.267Z,439.00
2023-05-20T01:46:29.458Z,438.00
2023-05-20T01:47:29.384Z,437.00
2023-05-20T01:48:29.410Z,438.00
2023-05-20T01:49:29.481Z,438.00
2023-05-20T01:50:29.501Z,437.00
2023-05-20T01:51:29.527Z,437.00
2023-05-20T01:52:29.603Z,435.00
2023-05-20T01:53:29.630Z,438.00
2023-05-20T01:54:29.668Z,438.00
2023-05-20T01:55:29.686Z,440.00
2023-05-20T01:56:29.752Z,442.00
2023-05-20T01:57:29.813Z,442.00
2023-05-20T01:58:29.859Z,443.00
2023-05-20T01:59:29.911Z,442.00
2023-05-20T02:00:29.928Z,444.00
2023-05-20T02:01:30.087Z,445.00
2023-05-20T02:02:30.122Z,447.00
2023-05-20T02:03:30.086Z,446.00
2023-05-20T02:04:30.115Z,447.00
2023-05-20T02:05:30.186Z,448.00
2023-05-20T02:06:30.162Z,447.00
2023-05-20T02:07:30.228Z,449.00
2023-05-20T02:08:30.280Z,449.00
2023-05-20T02:09:30.309Z,449.00
2023-05-20T02:10:30.372Z,450.00
2023-05-20T02:11:30.426Z,449.00
2023-05-20T02:12:30.471Z,448.00
2023-05-20T02:13:30.490Z,448.00
2023-05-20T02:14:30.588Z,448.00
2023-05-20T02:15:30.582Z,448.00
2023-05-20T02:16:30.666Z,451.00
2023-05-20T02:17:30.727Z,455.00
2023-05-20T02:18:30.764Z,457.00
2023-05-20T02:19:30.910Z,457.00
2023-05-20T02:20:30.846Z,457.00
2023-05-20T02:21:30.890Z,454.00
2023-05-20T02:22:30.931Z,452.00
2023-05-20T02:23:31.002Z,455.00
2023-05-20T02:24:31.016Z,455.00
2023-05-20T02:25:31.164Z,455.00
2023-05-20T02:26:31.116Z,452.00
2023-05-20T02:27:31.178Z,453.00
2023-05-20T02:28:31.255Z,452.00
2023-05-20T02:29:31.310Z,452.00
2023-05-20T02:30:31.356Z,454.00
2023-05-20T02:31:31.403Z,453.00
2023-05-20T02:32:31.434Z,456.00
2023-05-20T02:33:31.519Z,455.00
2023-05-20T02:34:31.674Z,456.00
2023-05-20T02:35:31.790Z,456.00
2023-05-20T02:36:31.620Z,456.00
2023-05-20T02:37:31.689Z,455.00
2023-05-20T02:38:31.739Z,455.00
2023-05-20T02:39:31.763Z,453.00
2023-05-20T02:40:31.840Z,454.00
2023-05-20T02:41:31.888Z,454.00
2023-05-20T02:42:31.930Z,456.00
2023-05-20T02:43:31.968Z,454.00
2023-05-20T02:44:32.002Z,452.00
2023-05-20T02:45:32.064Z,453.00
2023-05-20T02:46:32.165Z,453.00
2023-05-20T02:47:32.180Z,451.00
2023-05-20T02:48:32.199Z,453.00
2023-05-20T02:49:32.255Z,453.00
2023-05-20T02:50:32.312Z,455.00
2023-05-20T02:51:32.329Z,455.00
2023-05-20T02:52:32.390Z,454.00
2023-05-20T02:53:32.448Z,453.00
2023-05-20T02:54:32.496Z,455.00
2023-05-20T02:55:32.659Z,456.00
2023-05-20T02:56:32.645Z,458.00
2023-05-20T02:57:32.653Z,458.00
2023-05-20T02:58:32.691Z,457.00
2023-05-20T02:59:32.775Z,458.00
2023-05-20T03:00:32.811Z,458.00
2023-05-20T03:01:32.910Z,455.00
2023-05-20T03:02:33.000Z,456.00
2023-05-20T03:03:33.526Z,457.00
2023-05-20T03:04:33.010Z,457.00
2023-05-20T03:05:33.305Z,457.00
2023-05-20T03:06:33.124Z,456.00
2023-05-20T03:07:33.161Z,458.00
2023-05-20T03:08:33.209Z,458.00
2023-05-20T03:09:33.246Z,459.00
2023-05-20T03:10:33.281Z,460.00
2023-05-20T03:11:33.380Z,459.00
2023-05-20T03:12:33.404Z,459.00
2023-05-20T03:13:33.461Z,459.00
2023-05-20T03:14:33.518Z,458.00
2023-05-20T03:15:33.776Z,458.00
2023-05-20T03:16:33.644Z,460.00
2023-05-20T03:17:33.688Z,456.00
2023-05-20T03:18:33.708Z,454.00
2023-05-20T03:19:33.731Z,452.00
2023-05-20T03:20:33.792Z,451.00
2023-05-20T03:21:33.850Z,451.00
2023-05-20T03:22:33.928Z,452.00
2023-05-20T03:23:33.946Z,453.00
2023-05-20T03:24:34.000Z,454.00
2023-05-20T03:25:34.296Z,454.00
2023-05-20T03:26:34.099Z,453.00
2023-05-20T03:27:34.145Z,453.00
2023-05-20T03:28:34.208Z,452.00
2023-05-20T03:29:34.247Z,453.00
2023-05-20T03:30:34.318Z,455.00
2023-05-20T03:31:34.434Z,455.00
2023-05-20T03:32:34.474Z,455.00
2023-05-20T03:33:34.436Z,453.00
2023-05-20T03:34:34.483Z,455.00
2023-05-20T03:35:34.822Z,456.00
2023-05-20T03:36:34.595Z,454.00
2023-05-20T03:37:34.664Z,453.00
2023-05-20T03:38:34.706Z,452.00
2023-05-20T03:39:34.775Z,451.00
2023-05-20T03:40:34.834Z,453.00
2023-05-20T03:41:34.872Z,455.00
2023-05-20T03:42:34.906Z,456.00
2023-05-20T03:43:34.937Z,457.00
2023-05-20T03:44:35.026Z,459.00
2023-05-20T03:45:35.335Z,461.00
2023-05-20T03:46:35.175Z,462.00
2023-05-20T03:47:35.184Z,460.00
2023-05-20T03:48:35.257Z,460.00
2023-05-20T03:49:35.303Z,457.00
2023-05-20T03:50:35.458Z,455.00
2023-05-20T03:51:35.427Z,456.00
2023-05-20T03:52:35.521Z,456.00
2023-05-20T03:53:35.575Z,456.00
2023-05-20T03:54:35.620Z,456.00
2023-05-20T03:55:36.021Z,458.00
2023-05-20T03:56:35.740Z,456.00
2023-05-20T03:57:35.781Z,455.00
2023-05-20T03:58:35.830Z,459.00
2023-05-20T03:59:35.902Z,459.00
2023-05-20T04:00:35.963Z,461.00
2023-05-20T04:01:36.048Z,465.00
2023-05-20T04:02:36.087Z,464.00
2023-05-20T04:03:36.208Z,466.00
2023-05-20T04:04:36.173Z,464.00
2023-05-20T04:05:36.381Z,460.00
2023-05-20T04:06:36.315Z,462.00
2023-05-20T04:07:36.343Z,461.00
2023-05-20T04:08:36.403Z,461.00
2023-05-20T04:09:36.480Z,461.00
2023-05-20T04:10:36.516Z,457.00
2023-05-20T04:11:36.564Z,456.00
2023-05-20T04:12:36.610Z,452.00
2023-05-20T04:13:36.659Z,452.00
2023-05-20T04:14:36.733Z,455.00
2023-05-20T04:15:36.819Z,457.00
2023-05-20T04:16:36.891Z,460.00
2023-05-20T04:17:36.929Z,460.00
2023-05-20T04:18:36.925Z,462.00
2023-05-20T04:19:36.996Z,463.00
2023-05-20T04:20:37.069Z,464.00
2023-05-20T04:21:37.125Z,464.00
2023-05-20T04:22:37.152Z,464.00
2023-05-20T04:23:37.233Z,465.00
2023-05-20T04:24:37.260Z,464.00
2023-05-20T04:25:37.487Z,462.00
2023-05-20T04:26:37.356Z,461.00
2023-05-20T04:27:37.411Z,461.00
2023-05-20T04:28:37.452Z,458.00
2023-05-20T04:29:37.523Z,458.00
2023-05-20T04:30:37.580Z,458.00
2023-05-20T04:31:37.718Z,457.00
2023-05-20T04:32:37.746Z,459.00
2023-05-20T04:33:37.685Z,460.00
2023-05-20T04:34:37.774Z,461.00
2023-05-20T04:35:37.792Z,460.00
2023-05-20T04:36:37.822Z,463.00
2023-05-20T04:37:37.867Z,465.00
2023-05-20T04:38:37.894Z,465.00
2023-05-20T04:39:37.966Z,465.00
2023-05-20T04:40:38.020Z,464.00
2023-05-20T04:41:38.032Z,463.00
2023-05-20T04:42:38.117Z,462.00
2023-05-20T04:43:38.133Z,461.00
2023-05-20T04:44:38.180Z,463.00
2023-05-20T04:45:38.241Z,462.00
2023-05-20T04:46:38.317Z,459.00
2023-05-20T04:47:38.459Z,461.00
2023-05-20T04:48:38.341Z,460.00
2023-05-20T04:49:38.381Z,460.00
2023-05-20T04:50:38.441Z,458.00
2023-05-20T04:51:38.480Z,458.00
2023-05-20T04:52:38.512Z,461.00
2023-05-20T04:53:38.577Z,464.00
2023-05-20T04:54:38.599Z,464.00
2023-05-20T04:55:38.633Z,463.00
2023-05-20T04:56:38.662Z,463.00
2023-05-20T04:57:38.729Z,463.00
2023-05-20T04:58:38.766Z,464.00
2023-05-20T04:59:38.822Z,466.00
2023-05-20T05:00:38.879Z,467.00
2023-05-20T05:01:38.942Z,467.00
2023-05-20T05:02:39.047Z,470.00
2023-05-20T05:03:38.978Z,472.00
2023-05-20T05:04:39.026Z,470.00
2023-05-20T05:05:39.038Z,468.00
2023-05-20T05:06:39.078Z,468.00
2023-05-20T05:07:39.165Z,466.00
2023-05-20T05:08:39.177Z,466.00
2023-05-20T05:09:39.243Z,464.00
2023-05-20T05:10:39.292Z,463.00
2023-05-20T05:11:39.309Z,464.00
2023-05-20T05:12:39.362Z,464.00
2023-05-20T05:13:39.459Z,463.00
2023-05-20T05:14:39.428Z,464.00
2023-05-20T05:15:39.518Z,463.00
2023-05-20T05:16:39.509Z,464.00
2023-05-20T05:17:39.618Z,467.00
2023-05-20T05:18:39.662Z,468.00
2023-05-20T05:19:39.667Z,467.00
2023-05-20T05:20:39.725Z,466.00
2023-05-20T05:21:39.755Z,466.00
2023-05-20T05:22:39.799Z,466.00
2023-05-20T05:23:39.807Z,465.00
2023-05-20T05:24:39.855Z,466.00
2023-05-20T05:25:39.906Z,464.00
2023-05-20T05:26:39.936Z,462.00
2023-05-20T05:27:39.956Z,461.00
2023-05-20T05:28:39.994Z,459.00
2023-05-20T05:29:40.051Z,460.00
2023-05-20T05:30:40.069Z,461.00
2023-05-20T05:31:40.117Z,461.00
2023-05-20T05:32:40.204Z,460.00
2023-05-20T05:33:40.227Z,459.00
2023-05-20T05:34:40.265Z,456.00
2023-05-20T05:35:40.288Z,458.00
2023-05-20T05:36:40.369Z,462.00
2023-05-20T05:37:40.409Z,464.00
2023-05-20T05:38:40.436Z,462.00
2023-05-20T05:39:40.474Z,460.00
2023-05-20T05:40:40.518Z,460.00
2023-05-20T05:41:40.554Z,461.00
2023-05-20T05:42:40.629Z,462.00
2023-05-20T05:43:40.640Z,458.00
2023-05-20T05:44:40.695Z,458.00
2023-05-20T05:45:40.765Z,459.00
2023-05-20T05:46:40.777Z,461.00
2023-05-20T05:47:40.869Z,465.00
2023-05-20T05:48:40.833Z,463.00
2023-05-20T05:49:40.881Z,462.00
2023-05-20T05:50:41.042Z,462.00
2023-05-20T05:51:40.977Z,461.00
2023-05-20T05:52:41.030Z,460.00
2023-05-20T05:53:41.078Z,461.00
2023-05-20T05:54:41.109Z,461.00
2023-05-20T05:55:41.157Z,457.00
2023-05-20T05:56:41.182Z,458.00
2023-05-20T05:57:41.249Z,457.00
2023-05-20T05:58:41.294Z,457.00
2023-05-20T05:59:41.323Z,459.00
2023-05-20T06:00:41.434Z,460.00
2023-05-20T06:01:41.432Z,459.00
2023-05-20T06:02:41.632Z,462.00
2023-05-20T06:03:41.560Z,462.00
2023-05-20T06:04:41.621Z,460.00
2023-05-20T06:05:41.593Z,460.00
2023-05-20T06:06:41.633Z,460.00
2023-05-20T06:07:41.699Z,462.00
2023-05-20T06:08:41.740Z,462.00
2023-05-20T06:09:41.762Z,460.00
2023-05-20T06:10:41.818Z,460.00
2023-05-20T06:11:41.834Z,460.00
2023-05-20T06:12:41.901Z,459.00
2023-05-20T06:13:41.903Z,460.00
2023-05-20T06:14:42.002Z,461.00
2023-05-20T06:15:41.996Z,459.00
2023-05-20T06:16:42.078Z,458.00
2023-05-20T06:17:42.140Z,455.00
2023-05-20T06:18:42.181Z,453.00
2023-05-20T06:19:42.255Z,454.00
2023-05-20T06:20:42.245Z,454.00
2023-05-20T06:21:42.299Z,455.00
2023-05-20T06:22:42.333Z,454.00
2023-05-20T06:23:42.375Z,454.00
2023-05-20T06:24:42.424Z,453.00
2023-05-20T06:25:42.467Z,454.00
2023-05-20T06:26:42.491Z,454.00
2023-05-20T06:27:42.572Z,452.00
2023-05-20T06:28:42.594Z,456.00
2023-05-20T06:29:43.839Z,457.00
2023-05-20T06:30:42.728Z,455.00
2023-05-20T06:31:42.722Z,456.00
2023-05-20T06:32:42.791Z,455.00
2023-05-20T06:33:42.835Z,452.00
2023-05-20T06:34:42.825Z,453.00
2023-05-20T06:35:42.922Z,453.00
2023-05-20T06:36:42.946Z,455.00
2023-05-20T06:37:43.021Z,457.00
2023-05-20T06:38:43.032Z,456.00
2023-05-20T06:39:43.038Z,456.00
2023-05-20T06:40:43.119Z,455.00
2023-05-20T06:41:43.148Z,457.00
2023-05-20T06:42:43.153Z,457.00
2023-05-20T06:43:43.281Z,456.00
2023-05-20T06:44:43.247Z,455.00
2023-05-20T06:45:43.251Z,454.00
2023-05-20T06:46:43.333Z,450.00
2023-05-20T06:47:43.390Z,453.00
2023-05-20T06:48:43.375Z,452.00
2023-05-20T06:49:45.063Z,452.00
2023-05-20T06:50:43.386Z,452.00
2023-05-20T06:51:43.374Z,452.00
2023-05-20T06:52:43.399Z,453.00
2023-05-20T06:53:43.373Z,453.00
2023-05-20T06:54:43.378Z,458.00
2023-05-20T06:55:43.407Z,459.00
2023-05-20T06:56:43.371Z,458.00
2023-05-20T06:57:43.333Z,458.00
2023-05-20T06:58:43.356Z,456.00
2023-05-20T06:59:43.354Z,456.00
2023-05-20T07:00:43.345Z,457.00
2023-05-20T07:01:43.368Z,455.00
2023-05-20T07:02:43.378Z,455.00
2023-05-20T07:03:43.362Z,457.00
2023-05-20T07:04:43.319Z,457.00
2023-05-20T07:05:43.311Z,456.00
2023-05-20T07:06:43.321Z,455.00
2023-05-20T07:07:43.303Z,455.00
2023-05-20T07:08:43.286Z,453.00
2023-05-20T07:09:43.370Z,449.00
2023-05-20T07:10:43.258Z,448.00
2023-05-20T07:11:43.299Z,448.00
2023-05-20T07:12:43.261Z,448.00
2023-05-20T07:13:43.289Z,448.00
2023-05-20T07:14:43.251Z,450.00
2023-05-20T07:15:43.307Z,451.00
2023-05-20T07:16:43.260Z,452.00
2023-05-20T07:17:43.297Z,454.00
2023-05-20T07:18:43.314Z,454.00
2023-05-20T07:19:43.222Z,451.00
2023-05-20T07:20:43.195Z,451.00
2023-05-20T07:21:43.193Z,450.00
2023-05-20T07:22:43.192Z,451.00
2023-05-20T07:23:43.188Z,449.00
2023-05-20T07:24:43.170Z,452.00
2023-05-20T07:25:43.184Z,451.00
2023-05-20T07:26:43.199Z,449.00
2023-05-20T07:27:43.141Z,449.00
2023-05-20T07:28:43.146Z,449.00
2023-05-20T07:29:43.140Z,450.00
2023-05-20T07:30:43.121Z,451.00
2023-05-20T07:31:43.176Z,448.00
2023-05-20T07:32:43.160Z,448.00
2023-05-20T07:33:43.110Z,445.00
2023-05-20T07:34:43.087Z,444.00
2023-05-20T07:35:43.109Z,443.00
2023-05-20T07:36:43.120Z,443.00
2023-05-20T07:37:43.076Z,444.00
2023-05-20T07:38:49.984Z,445.00
2023-05-20T07:39:44.108Z,445.00
2023-05-20T07:40:43.105Z,445.00
2023-05-20T07:41:43.074Z,445.00
2023-05-20T07:42:43.064Z,447.00
2023-05-20T07:43:43.071Z,451.00
2023-05-20T07:44:43.045Z,451.00
2023-05-20T07:45:43.059Z,450.00
2023-05-20T07:46:43.168Z,451.00
2023-05-20T07:47:43.085Z,450.00
2023-05-20T07:48:43.051Z,448.00
2023-05-20T07:49:43.035Z,446.00
2023-05-20T07:50:43.012Z,444.00
2023-05-20T07:51:43.048Z,445.00
2023-05-20T07:52:55.422Z,446.00
2023-05-20T07:53:44.001Z,447.00
2023-05-20T07:54:43.012Z,447.00
2023-05-20T07:55:42.997Z,447.00
2023-05-20T07:56:42.990Z,447.00
2023-05-20T07:57:44.706Z,448.00
2023-05-20T07:58:42.953Z,450.00
2023-05-20T07:59:42.976Z,448.00
2023-05-20T08:00:42.932Z,450.00
2023-05-20T08:01:42.967Z,448.00
2023-05-20T08:02:43.125Z,446.00
2023-05-20T08:03:43.144Z,445.00
2023-05-20T08:04:43.080Z,447.00
2023-05-20T08:05:43.073Z,449.00
2023-05-20T08:06:43.150Z,449.00
2023-05-20T08:07:43.223Z,451.00
2023-05-20T08:08:43.275Z,451.00
2023-05-20T08:09:44.122Z,451.00
2023-05-20T08:10:43.404Z,451.00
2023-05-20T08:11:45.188Z,454.00
2023-05-20T08:12:43.487Z,454.00
2023-05-20T08:13:43.465Z,453.00
2023-05-20T08:14:43.463Z,449.00
2023-05-20T08:15:43.458Z,449.00
2023-05-20T08:16:43.500Z,452.00
2023-05-20T08:17:43.480Z,449.00
2023-05-20T08:18:43.459Z,448.00
2023-05-20T08:19:43.423Z,448.00
2023-05-20T08:20:43.433Z,450.00
2023-05-20T08:21:43.381Z,451.00
2023-05-20T08:22:43.435Z,450.00
2023-05-20T08:23:43.389Z,449.00
2023-05-20T08:24:43.389Z,449.00
2023-05-20T08:25:43.383Z,449.00
2023-05-20T08:26:43.349Z,449.00
2023-05-20T08:27:43.378Z,447.00
2023-05-20T08:28:43.383Z,446.00
2023-05-20T08:29:43.339Z,445.00
2023-05-20T08:30:43.344Z,445.00
2023-05-20T08:31:43.375Z,444.00
2023-05-20T08:32:43.379Z,444.00
2023-05-20T08:33:43.308Z,445.00
2023-05-20T08:34:43.301Z,446.00
2023-05-20T08:35:43.322Z,445.00
2023-05-20T08:36:43.283Z,444.00
2023-05-20T08:37:43.303Z,443.00
2023-05-20T08:38:43.279Z,443.00
2023-05-20T08:39:43.257Z,443.00
2023-05-20T08:40:43.277Z,442.00
2023-05-20T08:41:43.245Z,444.00
2023-05-20T08:42:43.240Z,444.00
2023-05-20T08:43:43.256Z,442.00
2023-05-20T08:44:43.242Z,439.00
2023-05-20T08:45:43.242Z,437.00
2023-05-20T08:46:43.282Z,437.00
2023-05-20T08:47:43.258Z,435.00
2023-05-20T08:48:43.218Z,436.00
2023-05-20T08:49:43.203Z,437.00
2023-05-20T08:50:43.235Z,439.00
2023-05-20T08:51:43.195Z,439.00
2023-05-20T08:52:43.171Z,437.00
2023-05-20T08:53:43.180Z,438.00
2023-05-20T08:54:43.180Z,438.00
2023-05-20T08:55:43.184Z,437.00
2023-05-20T08:56:43.153Z,436.00
2023-05-20T08:57:43.196Z,436.00
2023-05-20T08:58:43.219Z,438.00
2023-05-20T08:59:43.231Z,438.00
2023-05-20T09:00:43.245Z,438.00
2023-05-20T09:01:43.327Z,435.00
2023-05-20T09:02:43.363Z,436.00
2023-05-20T09:03:43.323Z,439.00
2023-05-20T09:04:43.408Z,442.00
2023-05-20T09:05:43.371Z,442.00
2023-05-20T09:06:43.409Z,439.00
2023-05-20T09:07:43.432Z,440.00
2023-05-20T09:08:43.419Z,440.00
2023-05-20T09:09:43.449Z,437.00
2023-05-20T09:10:43.501Z,436.00
2023-05-20T09:11:43.525Z,437.00
2023-05-20T09:12:43.548Z,434.00
2023-05-20T09:13:43.551Z,433.00
2023-05-20T09:14:43.589Z,432.00
2023-05-20T09:15:43.593Z,432.00
2023-05-20T09:16:43.783Z,432.00
2023-05-20T09:17:43.678Z,433.00
2023-05-20T09:18:43.762Z,430.00
2023-05-20T09:19:43.692Z,430.00
2023-05-20T09:20:43.733Z,431.00
2023-05-20T09:21:43.752Z,431.00
2023-05-20T09:22:43.783Z,431.00
2023-05-20T09:23:43.813Z,433.00
2023-05-20T09:24:43.807Z,437.00
2023-05-20T09:25:43.808Z,436.00
2023-05-20T09:26:43.828Z,437.00
2023-05-20T09:27:43.873Z,436.00
2023-05-20T09:28:43.875Z,435.00
2023-05-20T09:29:43.885Z,435.00
2023-05-20T09:30:45.907Z,434.00
2023-05-20T09:31:43.935Z,432.00
2023-05-20T09:32:43.917Z,433.00
2023-05-20T09:33:43.953Z,433.00
2023-05-20T09:34:44.058Z,432.00
2023-05-20T09:35:44.163Z,429.00
2023-05-20T09:36:44.270Z,428.00
2023-05-20T09:37:44.354Z,429.00
2023-05-20T09:38:44.329Z,429.00
2023-05-20T09:39:44.341Z,428.00
2023-05-20T09:40:44.364Z,428.00
2023-05-20T09:41:44.320Z,429.00
2023-05-20T09:42:44.326Z,430.00
2023-05-20T09:43:44.376Z,432.00
2023-05-20T09:44:44.411Z,431.00
2023-05-20T09:45:44.454Z,428.00
2023-05-20T09:46:44.460Z,429.00
2023-05-20T09:47:44.445Z,429.00
2023-05-20T09:48:44.395Z,429.00
2023-05-20T09:49:44.387Z,429.00
2023-05-20T09:50:44.441Z,430.00
2023-05-20T09:51:44.529Z,430.00
2023-05-20T09:52:44.629Z,427.00
2023-05-20T09:53:44.723Z,425.00
2023-05-20T09:54:44.726Z,424.00
2023-05-20T09:55:44.689Z,424.00
2023-05-20T09:56:44.694Z,427.00
2023-05-20T09:57:44.699Z,426.00
2023-05-20T09:58:44.703Z,427.00
2023-05-20T09:59:44.713Z,427.00
2023-05-20T10:00:44.756Z,424.00
2023-05-20T10:01:44.796Z,427.00
2023-05-20T10:02:44.866Z,428.00
2023-05-20T10:03:45.018Z,428.00
2023-05-20T10:04:44.832Z,428.00
2023-05-20T10:05:44.880Z,427.00
2023-05-20T10:06:44.872Z,427.00
2023-05-20T10:07:44.926Z,428.00
2023-05-20T10:08:45.659Z,429.00
2023-05-20T10:09:45.071Z,429.00
2023-05-20T10:10:45.040Z,430.00
2023-05-20T10:11:45.038Z,429.00
2023-05-20T10:12:45.078Z,428.00
2023-05-20T10:13:45.131Z,428.00
2023-05-20T10:14:45.056Z,427.00
2023-05-20T10:15:45.167Z,429.00
2023-05-20T10:16:45.213Z,427.00
2023-05-20T10:17:45.357Z,423.00
2023-05-20T10:18:45.388Z,423.00
2023-05-20T10:19:45.376Z,423.00
2023-05-20T10:20:45.354Z,421.00
2023-05-20T10:21:45.356Z,420.00
2023-05-20T10:22:45.342Z,418.00
2023-05-20T10:23:45.331Z,417.00
2023-05-20T10:24:45.359Z,419.00
2023-05-20T10:25:45.377Z,420.00
2023-05-20T10:26:45.363Z,423.00
2023-05-20T10:27:45.384Z,421.00
2023-05-20T10:28:45.370Z,419.00
2023-05-20T10:29:45.403Z,420.00
2023-05-20T10:30:45.413Z,421.00
2023-05-20T10:31:45.483Z,423.00
2023-05-20T10:32:45.593Z,425.00
2023-05-20T10:33:45.689Z,424.00
2023-05-20T10:34:45.668Z,424.00
2023-05-20T10:35:45.698Z,424.00
2023-05-20T10:36:45.720Z,425.00
2023-05-20T10:37:45.805Z,424.00
2023-05-20T10:38:45.878Z,423.00
2023-05-20T10:39:45.924Z,422.00
2023-05-20T10:40:45.980Z,423.00
2023-05-20T10:41:46.027Z,425.00
2023-05-20T10:42:46.101Z,424.00
2023-05-20T10:43:46.197Z,421.00
2023-05-20T10:44:46.236Z,421.00
2023-05-20T10:45:46.310Z,421.00
2023-05-20T10:47:06.621Z,422.00
2023-05-20T10:47:47.383Z,424.00
2023-05-20T10:48:46.416Z,424.00
2023-05-20T10:49:46.339Z,425.00
2023-05-20T10:50:46.313Z,426.00
2023-05-20T10:51:46.337Z,427.00
2023-05-20T10:52:46.306Z,428.00
2023-05-20T10:53:46.321Z,424.00
2023-05-20T10:54:46.720Z,423.00
2023-05-20T10:55:46.281Z,426.00
2023-05-20T10:56:46.393Z,425.00
2023-05-20T10:57:46.434Z,421.00
2023-05-20T10:58:46.496Z,422.00
2023-05-20T10:59:46.552Z,424.00
2023-05-20T11:00:47.062Z,423.00
2023-05-20T11:01:46.641Z,420.00
2023-05-20T11:02:46.779Z,420.00
2023-05-20T11:03:46.853Z,420.00
2023-05-20T11:04:46.820Z,421.00
2023-05-20T11:05:46.869Z,422.00
2023-05-20T11:06:47.034Z,423.00
2023-05-20T11:07:47.029Z,427.00
2023-05-20T11:08:47.073Z,427.00
2023-05-20T11:09:47.147Z,431.00
2023-05-20T11:10:47.213Z,432.00
2023-05-20T11:11:47.259Z,432.00
2023-05-20T11:12:47.367Z,431.00
2023-05-20T11:13:47.367Z,431.00
2023-05-20T11:14:47.432Z,431.00
2023-05-20T11:15:47.510Z,429.00
2023-05-20T11:16:47.586Z,426.00
2023-05-20T11:17:47.651Z,423.00
2023-05-20T11:18:47.722Z,423.00
2023-05-20T11:19:47.737Z,423.00
2023-05-20T11:20:47.790Z,422.00
2023-05-20T11:21:47.946Z,423.00
2023-05-20T11:22:47.901Z,426.00
2023-05-20T11:23:47.972Z,425.00
2023-05-20T11:24:48.054Z,428.00
2023-05-20T11:25:48.134Z,428.00
2023-05-20T11:26:48.204Z,431.00
2023-05-20T11:27:48.235Z,426.00
2023-05-20T11:28:48.225Z,424.00
2023-05-20T11:29:48.267Z,421.00
2023-05-20T11:30:48.373Z,420.00
2023-05-20T11:31:48.376Z,419.00
2023-05-20T11:32:48.465Z,419.00
2023-05-20T11:33:48.492Z,420.00
2023-05-20T11:34:48.545Z,421.00
2023-05-20T11:35:48.551Z,422.00
2023-05-20T11:36:48.565Z,423.00
2023-05-20T11:37:48.604Z,425.00
2023-05-20T11:38:48.625Z,426.00
2023-05-20T11:39:48.685Z,425.00
2023-05-20T11:40:51.219Z,428.00
2023-05-20T11:41:48.712Z,426.00
2023-05-20T11:42:48.709Z,425.00
2023-05-20T11:43:48.692Z,423.00
2023-05-20T11:44:48.688Z,424.00
2023-05-20T11:45:48.815Z,424.00
2023-05-20T11:46:48.655Z,424.00
2023-05-20T11:47:48.785Z,424.00
2023-05-20T11:48:48.663Z,425.00
2023-05-20T11:49:48.662Z,425.00
2023-05-20T11:50:48.649Z,426.00
2023-05-20T11:51:48.612Z,428.00
2023-05-20T11:52:48.631Z,427.00
2023-05-20T11:53:48.609Z,428.00
2023-05-20T11:54:48.636Z,425.00
2023-05-20T11:55:48.607Z,424.00
2023-05-20T11:56:48.626Z,424.00
2023-05-20T11:57:48.627Z,426.00
2023-05-20T11:58:48.580Z,424.00
2023-05-20T11:59:48.597Z,426.00
2023-05-20T12:00:54.737Z,428.00
2023-05-20T12:01:49.579Z,427.00
2023-05-20T12:02:48.635Z,427.00
2023-05-20T12:03:48.891Z,426.00
2023-05-20T12:04:48.591Z,426.00
2023-05-20T12:05:48.517Z,426.00
2023-05-20T12:06:48.542Z,427.00
2023-05-20T12:07:48.561Z,425.00
2023-05-20T12:08:48.512Z,425.00
2023-05-20T12:09:48.516Z,424.00
2023-05-20T12:10:48.548Z,421.00
2023-05-20T12:11:48.527Z,423.00
2023-05-20T12:12:48.601Z,422.00
2023-05-20T12:13:48.671Z,423.00
2023-05-20T12:14:48.749Z,423.00
2023-05-20T12:15:48.946Z,423.00
2023-05-20T12:16:48.909Z,421.00
2023-05-20T12:17:49.028Z,420.00
2023-05-20T12:18:49.102Z,421.00
2023-05-20T12:19:49.123Z,420.00
2023-05-20T12:20:49.230Z,418.00
2023-05-20T12:21:49.242Z,419.00
2023-05-20T12:22:49.257Z,417.00
2023-05-20T12:23:49.236Z,418.00
2023-05-20T12:24:49.231Z,417.00
2023-05-20T12:25:49.240Z,416.00
2023-05-20T12:26:49.252Z,416.00
2023-05-20T12:27:49.251Z,417.00
2023-05-20T12:28:49.250Z,416.00